sensor_id;sensor_type;location;lat;lon;timestamp;temperature;humidity
19567;DHT22;9930;49.240;8.548;2023-05-10T00:00:37;18.60;79.70
19567;DHT22;9930;49.240;8.548;2023-05-10T00:03:05;18.60;79.80
19567;DHT22;9930;49.240;8.548;2023-05-10T00:05:31;18.60;79.90
19567;DHT22;9930;49.240;8.548;2023-05-10T00:08:13;18.50;79.90
19567;DHT22;9930;49.240;8.548;2023-05-10T00:10:48;18.50;80.30
19567;DHT22;9930;49.240;8.548;2023-05-10T00:13:14;18.50;80.00
19567;DHT22;9930;49.240;8.548;2023-05-10T00:15:40;18.50;80.10
19567;DHT22;9930;49.240;8.548;2023-05-10T00:18:06;18.50;80.10
19567;DHT22;9930;49.240;8.548;2023-05-10T00:20:32;18.50;80.10
19567;DHT22;9930;49.240;8.548;2023-05-10T00:22:58;18.50;80.10
19567;DHT22;9930;49.240;8.548;2023-05-10T00:25:23;18.50;80.00
19567;DHT22;9930;49.240;8.548;2023-05-10T00:27:55;18.50;80.10
19567;DHT22;9930;49.240;8.548;2023-05-10T00:30:22;18.40;80.10
19567;DHT22;9930;49.240;8.548;2023-05-10T00:32:50;18.40;80.10
19567;DHT22;9930;49.240;8.548;2023-05-10T00:35:17;18.40;80.00
19567;DHT22;9930;49.240;8.548;2023-05-10T00:37:42;18.40;80.10
19567;DHT22;9930;49.240;8.548;2023-05-10T00:40:14;18.40;80.10
19567;DHT22;9930;49.240;8.548;2023-05-10T00:42:40;18.30;80.00
19567;DHT22;9930;49.240;8.548;2023-05-10T00:45:08;18.30;80.00
19567;DHT22;9930;49.240;8.548;2023-05-10T00:47:37;18.30;79.90
19567;DHT22;9930;49.240;8.548;2023-05-10T00:50:04;18.30;80.00
19567;DHT22;9930;49.240;8.548;2023-05-10T00:52:31;18.30;80.00
19567;DHT22;9930;49.240;8.548;2023-05-10T00:54:57;18.30;80.00
19567;DHT22;9930;49.240;8.548;2023-05-10T00:57:25;18.20;80.00
19567;DHT22;9930;49.240;8.548;2023-05-10T00:59:53;18.20;79.90
19567;DHT22;9930;49.240;8.548;2023-05-10T01:02:19;18.20;79.90
19567;DHT22;9930;49.240;8.548;2023-05-10T01:04:44;18.20;79.90
19567;DHT22;9930;49.240;8.548;2023-05-10T01:07:12;18.20;79.80
19567;DHT22;9930;49.240;8.548;2023-05-10T01:09:40;18.10;80.00
19567;DHT22;9930;49.240;8.548;2023-05-10T01:12:07;18.10;79.90
19567;DHT22;9930;49.240;8.548;2023-05-10T01:14:33;18.10;80.00
19567;DHT22;9930;49.240;8.548;2023-05-10T01:17:02;18.10;80.00
19567;DHT22;9930;49.240;8.548;2023-05-10T01:19:31;18.10;80.00
19567;DHT22;9930;49.240;8.548;2023-05-10T01:34:32;17.90;80.10
19567;DHT22;9930;49.240;8.548;2023-05-10T01:36:58;17.90;80.50
19567;DHT22;9930;49.240;8.548;2023-05-10T01:39:44;17.90;80.60
19567;DHT22;9930;49.240;8.548;2023-05-10T01:42:19;17.80;80.70
19567;DHT22;9930;49.240;8.548;2023-05-10T01:45:20;17.80;80.40
19567;DHT22;9930;49.240;8.548;2023-05-10T01:50:39;17.80;80.70
19567;DHT22;9930;49.240;8.548;2023-05-10T01:53:12;17.80;80.50
19567;DHT22;9930;49.240;8.548;2023-05-10T01:55:51;17.80;80.60
19567;DHT22;9930;49.240;8.548;2023-05-10T01:58:28;17.80;81.10
19567;DHT22;9930;49.240;8.548;2023-05-10T02:01:03;17.70;80.90
19567;DHT22;9930;49.240;8.548;2023-05-10T02:03:35;17.70;80.80
19567;DHT22;9930;49.240;8.548;2023-05-10T02:06:03;17.70;80.80
19567;DHT22;9930;49.240;8.548;2023-05-10T02:08:30;17.70;80.70
19567;DHT22;9930;49.240;8.548;2023-05-10T02:11:00;17.70;80.70
19567;DHT22;9930;49.240;8.548;2023-05-10T02:13:28;17.70;80.70
19567;DHT22;9930;49.240;8.548;2023-05-10T02:15:57;17.70;80.60
19567;DHT22;9930;49.240;8.548;2023-05-10T02:18:24;17.60;80.70
19567;DHT22;9930;49.240;8.548;2023-05-10T02:20:52;17.60;80.80
19567;DHT22;9930;49.240;8.548;2023-05-10T02:23:23;17.60;80.90
19567;DHT22;9930;49.240;8.548;2023-05-10T02:25:51;17.60;81.10
19567;DHT22;9930;49.240;8.548;2023-05-10T02:28:21;17.60;81.30
19567;DHT22;9930;49.240;8.548;2023-05-10T02:30:51;17.60;81.40
19567;DHT22;9930;49.240;8.548;2023-05-10T02:33:22;17.60;81.40
19567;DHT22;9930;49.240;8.548;2023-05-10T02:35:54;17.60;81.50
19567;DHT22;9930;49.240;8.548;2023-05-10T02:38:24;17.60;81.60
19567;DHT22;9930;49.240;8.548;2023-05-10T02:40:55;17.60;81.60
19567;DHT22;9930;49.240;8.548;2023-05-10T02:43:22;17.60;81.70
19567;DHT22;9930;49.240;8.548;2023-05-10T02:45:51;17.60;81.80
19567;DHT22;9930;49.240;8.548;2023-05-10T02:48:17;17.60;81.80
19567;DHT22;9930;49.240;8.548;2023-05-10T02:50:46;17.60;81.80
19567;DHT22;9930;49.240;8.548;2023-05-10T02:53:21;17.60;81.80
19567;DHT22;9930;49.240;8.548;2023-05-10T02:55:52;17.60;81.80
19567;DHT22;9930;49.240;8.548;2023-05-10T02:58:26;17.60;81.80
19567;DHT22;9930;49.240;8.548;2023-05-10T03:00:56;17.60;81.90
19567;DHT22;9930;49.240;8.548;2023-05-10T03:03:24;17.60;81.90
19567;DHT22;9930;49.240;8.548;2023-05-10T03:05:52;17.60;81.90
19567;DHT22;9930;49.240;8.548;2023-05-10T03:08:21;17.60;81.90
19567;DHT22;9930;49.240;8.548;2023-05-10T03:11:06;17.60;81.90
19567;DHT22;9930;49.240;8.548;2023-05-10T03:16:29;17.60;81.80
19567;DHT22;9930;49.240;8.548;2023-05-10T03:19:27;17.50;81.90
19567;DHT22;9930;49.240;8.548;2023-05-10T03:22:04;17.50;82.00
19567;DHT22;9930;49.240;8.548;2023-05-10T03:24:36;17.50;81.70
19567;DHT22;9930;49.240;8.548;2023-05-10T03:27:08;17.50;81.60
19567;DHT22;9930;49.240;8.548;2023-05-10T03:29:36;17.50;81.60
19567;DHT22;9930;49.240;8.548;2023-05-10T03:32:03;17.50;81.70
19567;DHT22;9930;49.240;8.548;2023-05-10T03:34:31;17.40;81.60
19567;DHT22;9930;49.240;8.548;2023-05-10T03:37:01;17.40;81.70
19567;DHT22;9930;49.240;8.548;2023-05-10T03:39:31;17.40;81.60
19567;DHT22;9930;49.240;8.548;2023-05-10T03:41:59;17.40;81.70
19567;DHT22;9930;49.240;8.548;2023-05-10T03:44:27;17.40;81.70
19567;DHT22;9930;49.240;8.548;2023-05-10T03:46:56;17.30;81.60
19567;DHT22;9930;49.240;8.548;2023-05-10T03:49:22;17.30;81.60
19567;DHT22;9930;49.240;8.548;2023-05-10T03:51:48;17.30;81.70
19567;DHT22;9930;49.240;8.548;2023-05-10T03:54:14;17.30;81.80
19567;DHT22;9930;49.240;8.548;2023-05-10T03:56:40;17.30;81.90
19567;DHT22;9930;49.240;8.548;2023-05-10T03:59:11;17.20;81.90
19567;DHT22;9930;49.240;8.548;2023-05-10T04:01:36;17.20;82.00
19567;DHT22;9930;49.240;8.548;2023-05-10T04:04:04;17.20;82.10
19567;DHT22;9930;49.240;8.548;2023-05-10T04:06:30;17.20;82.30
19567;DHT22;9930;49.240;8.548;2023-05-10T04:08:58;17.20;82.40
19567;DHT22;9930;49.240;8.548;2023-05-10T04:11:29;17.10;82.30
19567;DHT22;9930;49.240;8.548;2023-05-10T04:13:56;17.10;82.40
19567;DHT22;9930;49.240;8.548;2023-05-10T04:16:24;17.10;82.50
19567;DHT22;9930;49.240;8.548;2023-05-10T04:18:52;17.10;82.60
19567;DHT22;9930;49.240;8.548;2023-05-10T04:21:20;17.10;82.60
19567;DHT22;9930;49.240;8.548;2023-05-10T04:23:46;17.10;82.80
19567;DHT22;9930;49.240;8.548;2023-05-10T04:26:15;17.20;82.90
19567;DHT22;9930;49.240;8.548;2023-05-10T04:28:42;17.20;83.00
19567;DHT22;9930;49.240;8.548;2023-05-10T04:31:10;17.20;83.10
19567;DHT22;9930;49.240;8.548;2023-05-10T04:33:40;17.20;83.20
19567;DHT22;9930;49.240;8.548;2023-05-10T04:36:09;17.20;83.10
19567;DHT22;9930;49.240;8.548;2023-05-10T04:38:35;17.20;83.20
19567;DHT22;9930;49.240;8.548;2023-05-10T04:41:08;17.20;83.20
19567;DHT22;9930;49.240;8.548;2023-05-10T04:43:36;17.30;83.30
19567;DHT22;9930;49.240;8.548;2023-05-10T04:46:03;17.30;83.30
19567;DHT22;9930;49.240;8.548;2023-05-10T04:48:33;17.30;83.30
19567;DHT22;9930;49.240;8.548;2023-05-10T04:50:59;17.30;83.30
19567;DHT22;9930;49.240;8.548;2023-05-10T04:53:29;17.30;83.30
19567;DHT22;9930;49.240;8.548;2023-05-10T04:55:57;17.40;83.20
19567;DHT22;9930;49.240;8.548;2023-05-10T04:58:23;17.40;83.30
19567;DHT22;9930;49.240;8.548;2023-05-10T05:00:49;17.40;83.20
19567;DHT22;9930;49.240;8.548;2023-05-10T05:03:17;17.40;83.20
19567;DHT22;9930;49.240;8.548;2023-05-10T05:05:43;17.40;83.20
19567;DHT22;9930;49.240;8.548;2023-05-10T05:08:13;17.40;83.20
19567;DHT22;9930;49.240;8.548;2023-05-10T05:10:42;17.40;83.30
19567;DHT22;9930;49.240;8.548;2023-05-10T05:13:12;17.50;83.30
19567;DHT22;9930;49.240;8.548;2023-05-10T05:15:38;17.50;83.40
19567;DHT22;9930;49.240;8.548;2023-05-10T05:18:05;17.50;83.40
19567;DHT22;9930;49.240;8.548;2023-05-10T05:20:32;17.50;83.50
19567;DHT22;9930;49.240;8.548;2023-05-10T05:23:03;17.50;83.50
19567;DHT22;9930;49.240;8.548;2023-05-10T05:25:29;17.60;83.50
19567;DHT22;9930;49.240;8.548;2023-05-10T05:27:55;17.60;83.50
19567;DHT22;9930;49.240;8.548;2023-05-10T05:30:23;17.60;83.50
19567;DHT22;9930;49.240;8.548;2023-05-10T05:32:51;17.70;83.60
19567;DHT22;9930;49.240;8.548;2023-05-10T05:35:17;17.70;83.60
19567;DHT22;9930;49.240;8.548;2023-05-10T05:37:43;17.70;83.60
19567;DHT22;9930;49.240;8.548;2023-05-10T05:40:16;17.70;84.30
19567;DHT22;9930;49.240;8.548;2023-05-10T05:42:42;17.80;83.70
19567;DHT22;9930;49.240;8.548;2023-05-10T05:45:11;17.80;83.60
19567;DHT22;9930;49.240;8.548;2023-05-10T05:47:44;17.90;83.70
19567;DHT22;9930;49.240;8.548;2023-05-10T05:50:10;17.90;83.70
19567;DHT22;9930;49.240;8.548;2023-05-10T05:52:36;17.90;83.60
19567;DHT22;9930;49.240;8.548;2023-05-10T05:55:02;18.00;83.60
19567;DHT22;9930;49.240;8.548;2023-05-10T05:57:28;18.00;83.50
19567;DHT22;9930;49.240;8.548;2023-05-10T05:59:59;18.00;83.30
19567;DHT22;9930;49.240;8.548;2023-05-10T06:02:32;18.00;83.30
19567;DHT22;9930;49.240;8.548;2023-05-10T06:04:58;18.00;83.30
19567;DHT22;9930;49.240;8.548;2023-05-10T06:07:23;18.00;83.30
19567;DHT22;9930;49.240;8.548;2023-05-10T06:09:49;18.00;83.20
19567;DHT22;9930;49.240;8.548;2023-05-10T06:12:15;18.10;83.30
19567;DHT22;9930;49.240;8.548;2023-05-10T06:14:41;18.00;83.20
19567;DHT22;9930;49.240;8.548;2023-05-10T06:17:07;18.10;83.30
19567;DHT22;9930;49.240;8.548;2023-05-10T06:19:35;18.10;83.30
19567;DHT22;9930;49.240;8.548;2023-05-10T06:22:03;18.10;83.30
19567;DHT22;9930;49.240;8.548;2023-05-10T06:24:29;18.10;83.20
19567;DHT22;9930;49.240;8.548;2023-05-10T06:26:57;18.20;83.20
19567;DHT22;9930;49.240;8.548;2023-05-10T06:29:25;18.20;83.20
19567;DHT22;9930;49.240;8.548;2023-05-10T06:31:51;18.20;83.30
19567;DHT22;9930;49.240;8.548;2023-05-10T06:34:17;18.20;83.40
19567;DHT22;9930;49.240;8.548;2023-05-10T06:36:42;18.20;83.40
19567;DHT22;9930;49.240;8.548;2023-05-10T06:39:11;18.30;83.40
19567;DHT22;9930;49.240;8.548;2023-05-10T06:41:37;18.30;83.40
19567;DHT22;9930;49.240;8.548;2023-05-10T06:44:03;18.40;83.50
19567;DHT22;9930;49.240;8.548;2023-05-10T06:46:31;18.40;83.50
19567;DHT22;9930;49.240;8.548;2023-05-10T06:48:57;18.40;83.40
19567;DHT22;9930;49.240;8.548;2023-05-10T06:51:22;18.50;83.40
19567;DHT22;9930;49.240;8.548;2023-05-10T06:53:48;18.50;83.20
19567;DHT22;9930;49.240;8.548;2023-05-10T06:56:16;18.60;83.20
19567;DHT22;9930;49.240;8.548;2023-05-10T06:58:42;18.60;83.30
19567;DHT22;9930;49.240;8.548;2023-05-10T07:01:07;18.70;83.40
19567;DHT22;9930;49.240;8.548;2023-05-10T07:03:33;18.70;83.30
19567;DHT22;9930;49.240;8.548;2023-05-10T07:06:03;18.80;83.40
19567;DHT22;9930;49.240;8.548;2023-05-10T07:08:38;18.90;83.40
19567;DHT22;9930;49.240;8.548;2023-05-10T07:11:06;18.90;83.70
19567;DHT22;9930;49.240;8.548;2023-05-10T07:13:38;19.00;82.60
19567;DHT22;9930;49.240;8.548;2023-05-10T07:16:06;19.00;82.30
19567;DHT22;9930;49.240;8.548;2023-05-10T07:18:33;19.10;82.40
19567;DHT22;9930;49.240;8.548;2023-05-10T07:20:59;19.10;82.30
19567;DHT22;9930;49.240;8.548;2023-05-10T07:23:27;19.20;83.10
19567;DHT22;9930;49.240;8.548;2023-05-10T07:25:53;19.20;82.40
19567;DHT22;9930;49.240;8.548;2023-05-10T07:28:19;19.30;82.20
19567;DHT22;9930;49.240;8.548;2023-05-10T07:30:45;19.40;82.00
19567;DHT22;9930;49.240;8.548;2023-05-10T07:33:13;19.40;81.80
19567;DHT22;9930;49.240;8.548;2023-05-10T07:35:41;19.50;81.60
19567;DHT22;9930;49.240;8.548;2023-05-10T07:38:08;19.50;81.70
19567;DHT22;9930;49.240;8.548;2023-05-10T07:40:34;19.60;81.50
19567;DHT22;9930;49.240;8.548;2023-05-10T07:42:59;19.60;81.10
19567;DHT22;9930;49.240;8.548;2023-05-10T07:45:28;19.70;80.90
19567;DHT22;9930;49.240;8.548;2023-05-10T07:47:56;19.70;80.60
19567;DHT22;9930;49.240;8.548;2023-05-10T07:50:26;19.70;80.40
19567;DHT22;9930;49.240;8.548;2023-05-10T07:52:57;19.80;80.40
19567;DHT22;9930;49.240;8.548;2023-05-10T07:55:25;19.80;79.90
19567;DHT22;9930;49.240;8.548;2023-05-10T07:57:54;19.80;79.60
19567;DHT22;9930;49.240;8.548;2023-05-10T08:00:22;19.80;79.50
19567;DHT22;9930;49.240;8.548;2023-05-10T08:02:47;19.80;79.50
19567;DHT22;9930;49.240;8.548;2023-05-10T08:05:13;19.80;79.40
19567;DHT22;9930;49.240;8.548;2023-05-10T08:07:41;19.80;79.50
19567;DHT22;9930;49.240;8.548;2023-05-10T08:10:08;19.90;79.50
19567;DHT22;9930;49.240;8.548;2023-05-10T08:12:38;19.80;79.40
19567;DHT22;9930;49.240;8.548;2023-05-10T08:15:04;19.90;79.60
19567;DHT22;9930;49.240;8.548;2023-05-10T08:17:30;19.90;79.50
19567;DHT22;9930;49.240;8.548;2023-05-10T08:19:56;20.00;79.20
19567;DHT22;9930;49.240;8.548;2023-05-10T08:22:21;20.00;79.30
19567;DHT22;9930;49.240;8.548;2023-05-10T08:24:47;20.00;79.00
19567;DHT22;9930;49.240;8.548;2023-05-10T08:27:15;20.10;78.80
19567;DHT22;9930;49.240;8.548;2023-05-10T08:29:41;20.10;78.50
19567;DHT22;9930;49.240;8.548;2023-05-10T08:32:13;20.10;78.20
19567;DHT22;9930;49.240;8.548;2023-05-10T08:34:40;20.10;77.70
19567;DHT22;9930;49.240;8.548;2023-05-10T08:37:11;20.10;77.70
19567;DHT22;9930;49.240;8.548;2023-05-10T08:39:43;20.10;77.70
19567;DHT22;9930;49.240;8.548;2023-05-10T08:42:16;20.20;77.80
19567;DHT22;9930;49.240;8.548;2023-05-10T08:44:48;20.20;77.80
19567;DHT22;9930;49.240;8.548;2023-05-10T08:47:16;20.20;77.70
19567;DHT22;9930;49.240;8.548;2023-05-10T08:49:47;20.30;77.50
19567;DHT22;9930;49.240;8.548;2023-05-10T08:52:19;20.40;77.30
19567;DHT22;9930;49.240;8.548;2023-05-10T08:54:46;20.40;77.10
19567;DHT22;9930;49.240;8.548;2023-05-10T08:57:12;20.50;76.80
19567;DHT22;9930;49.240;8.548;2023-05-10T08:59:41;20.50;76.40
19567;DHT22;9930;49.240;8.548;2023-05-10T09:02:11;20.60;76.20
19567;DHT22;9930;49.240;8.548;2023-05-10T09:04:43;20.70;76.10
19567;DHT22;9930;49.240;8.548;2023-05-10T09:07:11;20.80;76.00
19567;DHT22;9930;49.240;8.548;2023-05-10T09:09:38;20.90;75.30
19567;DHT22;9930;49.240;8.548;2023-05-10T09:12:10;21.00;74.70
19567;DHT22;9930;49.240;8.548;2023-05-10T09:14:37;21.00;74.40
19567;DHT22;9930;49.240;8.548;2023-05-10T09:17:04;21.10;74.00
19567;DHT22;9930;49.240;8.548;2023-05-10T09:19:35;21.10;73.60
19567;DHT22;9930;49.240;8.548;2023-05-10T09:22:03;21.10;73.30
19567;DHT22;9930;49.240;8.548;2023-05-10T09:24:30;21.10;72.90
19567;DHT22;9930;49.240;8.548;2023-05-10T09:26:58;21.20;73.10
19567;DHT22;9930;49.240;8.548;2023-05-10T09:29:23;21.20;73.10
19567;DHT22;9930;49.240;8.548;2023-05-10T09:31:52;21.20;72.70
19567;DHT22;9930;49.240;8.548;2023-05-10T09:34:29;21.20;72.00
19567;DHT22;9930;49.240;8.548;2023-05-10T09:36:59;21.20;71.40
19567;DHT22;9930;49.240;8.548;2023-05-10T09:39:34;21.30;71.90
19567;DHT22;9930;49.240;8.548;2023-05-10T09:42:08;21.20;71.40
19567;DHT22;9930;49.240;8.548;2023-05-10T09:44:37;21.20;71.50
19567;DHT22;9930;49.240;8.548;2023-05-10T09:47:14;21.30;71.70
19567;DHT22;9930;49.240;8.548;2023-05-10T09:49:43;21.30;71.70
19567;DHT22;9930;49.240;8.548;2023-05-10T09:52:10;21.30;71.60
19567;DHT22;9930;49.240;8.548;2023-05-10T09:54:36;21.40;71.50
19567;DHT22;9930;49.240;8.548;2023-05-10T09:57:01;21.40;71.60
19567;DHT22;9930;49.240;8.548;2023-05-10T09:59:28;21.50;71.60
19567;DHT22;9930;49.240;8.548;2023-05-10T10:01:59;21.50;71.40
19567;DHT22;9930;49.240;8.548;2023-05-10T10:04:25;21.70;71.40
19567;DHT22;9930;49.240;8.548;2023-05-10T10:07:02;21.80;71.50
19567;DHT22;9930;49.240;8.548;2023-05-10T10:09:30;21.80;70.40
19567;DHT22;9930;49.240;8.548;2023-05-10T10:12:00;21.90;71.20
19567;DHT22;9930;49.240;8.548;2023-05-10T10:14:26;22.00;70.50
19567;DHT22;9930;49.240;8.548;2023-05-10T10:16:52;22.00;69.80
19567;DHT22;9930;49.240;8.548;2023-05-10T10:19:19;22.00;69.30
19567;DHT22;9930;49.240;8.548;2023-05-10T10:21:49;22.00;69.00
19567;DHT22;9930;49.240;8.548;2023-05-10T10:24:20;22.00;68.60
19567;DHT22;9930;49.240;8.548;2023-05-10T10:26:46;22.00;68.60
19567;DHT22;9930;49.240;8.548;2023-05-10T10:29:25;21.90;68.50
19567;DHT22;9930;49.240;8.548;2023-05-10T10:32:42;21.90;67.90
19567;DHT22;9930;49.240;8.548;2023-05-10T10:35:35;21.80;67.50
19567;DHT22;9930;49.240;8.548;2023-05-10T10:38:04;21.70;68.40
19567;DHT22;9930;49.240;8.548;2023-05-10T10:40:33;21.70;68.30
19567;DHT22;9930;49.240;8.548;2023-05-10T10:43:23;21.70;68.60
19567;DHT22;9930;49.240;8.548;2023-05-10T10:46:11;21.60;68.00
19567;DHT22;9930;49.240;8.548;2023-05-10T10:49:10;21.70;68.10
19567;DHT22;9930;49.240;8.548;2023-05-10T10:52:21;21.70;68.00
19567;DHT22;9930;49.240;8.548;2023-05-10T10:55:18;21.80;68.00
19567;DHT22;9930;49.240;8.548;2023-05-10T10:57:49;21.80;67.50
19567;DHT22;9930;49.240;8.548;2023-05-10T11:00:27;22.00;68.80
19567;DHT22;9930;49.240;8.548;2023-05-10T11:03:13;22.00;68.50
19567;DHT22;9930;49.240;8.548;2023-05-10T11:05:46;22.10;68.20
19567;DHT22;9930;49.240;8.548;2023-05-10T11:13:44;22.40;65.00
19567;DHT22;9930;49.240;8.548;2023-05-10T11:16:21;22.40;65.10
19567;DHT22;9930;49.240;8.548;2023-05-10T11:19:08;22.50;65.30
19567;DHT22;9930;49.240;8.548;2023-05-10T11:24:30;22.50;64.10
19567;DHT22;9930;49.240;8.548;2023-05-10T11:26:57;22.60;64.40
19567;DHT22;9930;49.240;8.548;2023-05-10T11:29:22;22.50;64.00
19567;DHT22;9930;49.240;8.548;2023-05-10T11:31:49;22.50;63.80
19567;DHT22;9930;49.240;8.548;2023-05-10T11:34:30;22.40;63.60
19567;DHT22;9930;49.240;8.548;2023-05-10T11:36:59;22.30;62.80
19567;DHT22;9930;49.240;8.548;2023-05-10T11:39:31;22.20;63.40
19567;DHT22;9930;49.240;8.548;2023-05-10T11:41:58;22.10;63.00
19567;DHT22;9930;49.240;8.548;2023-05-10T11:44:29;22.00;63.10
19567;DHT22;9930;49.240;8.548;2023-05-10T11:46:59;21.80;62.80
19567;DHT22;9930;49.240;8.548;2023-05-10T11:49:28;21.60;62.70
19567;DHT22;9930;49.240;8.548;2023-05-10T11:52:06;21.40;62.80
19567;DHT22;9930;49.240;8.548;2023-05-10T11:54:36;21.20;62.50
19567;DHT22;9930;49.240;8.548;2023-05-10T11:57:02;21.00;63.10
19567;DHT22;9930;49.240;8.548;2023-05-10T11:59:28;20.90;62.90
19567;DHT22;9930;49.240;8.548;2023-05-10T12:01:54;20.80;63.80
19567;DHT22;9930;49.240;8.548;2023-05-10T12:04:23;20.70;63.40
19567;DHT22;9930;49.240;8.548;2023-05-10T12:06:49;20.70;63.60
19567;DHT22;9930;49.240;8.548;2023-05-10T12:09:17;20.60;63.80
19567;DHT22;9930;49.240;8.548;2023-05-10T12:11:45;20.60;64.00
19567;DHT22;9930;49.240;8.548;2023-05-10T12:14:13;20.70;64.20
19567;DHT22;9930;49.240;8.548;2023-05-10T12:16:43;20.70;64.40
19567;DHT22;9930;49.240;8.548;2023-05-10T12:19:13;20.80;64.30
19567;DHT22;9930;49.240;8.548;2023-05-10T12:21:45;20.90;64.10
19567;DHT22;9930;49.240;8.548;2023-05-10T12:24:13;21.10;64.00
19567;DHT22;9930;49.240;8.548;2023-05-10T12:26:48;21.20;63.80
19567;DHT22;9930;49.240;8.548;2023-05-10T12:29:18;21.30;63.20
19567;DHT22;9930;49.240;8.548;2023-05-10T12:31:53;21.40;63.30
19567;DHT22;9930;49.240;8.548;2023-05-10T12:34:34;21.50;63.10
19567;DHT22;9930;49.240;8.548;2023-05-10T12:37:04;21.50;62.00
19567;DHT22;9930;49.240;8.548;2023-05-10T12:39:44;21.70;62.70
19567;DHT22;9930;49.240;8.548;2023-05-10T12:42:14;21.70;62.40
19567;DHT22;9930;49.240;8.548;2023-05-10T12:44:42;21.90;62.90
19567;DHT22;9930;49.240;8.548;2023-05-10T12:47:08;22.00;62.40
19567;DHT22;9930;49.240;8.548;2023-05-10T12:49:34;22.10;62.20
19567;DHT22;9930;49.240;8.548;2023-05-10T12:52:02;22.20;61.80
19567;DHT22;9930;49.240;8.548;2023-05-10T12:54:30;22.20;61.40
19567;DHT22;9930;49.240;8.548;2023-05-10T12:56:58;22.30;60.60
19567;DHT22;9930;49.240;8.548;2023-05-10T12:59:24;22.40;60.60
19567;DHT22;9930;49.240;8.548;2023-05-10T13:01:55;22.40;60.50
19567;DHT22;9930;49.240;8.548;2023-05-10T13:04:22;22.50;60.20
19567;DHT22;9930;49.240;8.548;2023-05-10T13:06:47;22.60;60.20
19567;DHT22;9930;49.240;8.548;2023-05-10T13:09:13;22.70;60.20
19567;DHT22;9930;49.240;8.548;2023-05-10T13:11:41;22.70;59.90
19567;DHT22;9930;49.240;8.548;2023-05-10T13:14:08;22.80;59.80
19567;DHT22;9930;49.240;8.548;2023-05-10T13:16:38;22.80;59.50
19567;DHT22;9930;49.240;8.548;2023-05-10T13:19:08;22.80;58.90
19567;DHT22;9930;49.240;8.548;2023-05-10T13:21:36;22.90;58.90
19567;DHT22;9930;49.240;8.548;2023-05-10T13:24:04;22.90;58.60
19567;DHT22;9930;49.240;8.548;2023-05-10T13:26:33;22.90;58.50
19567;DHT22;9930;49.240;8.548;2023-05-10T13:29:01;22.90;58.40
19567;DHT22;9930;49.240;8.548;2023-05-10T13:31:30;22.90;58.30
19567;DHT22;9930;49.240;8.548;2023-05-10T13:33:56;22.90;58.30
19567;DHT22;9930;49.240;8.548;2023-05-10T13:36:21;22.90;58.10
19567;DHT22;9930;49.240;8.548;2023-05-10T13:38:49;23.00;58.20
19567;DHT22;9930;49.240;8.548;2023-05-10T13:41:17;22.90;57.90
19567;DHT22;9930;49.240;8.548;2023-05-10T13:43:43;23.00;57.70
19567;DHT22;9930;49.240;8.548;2023-05-10T13:46:09;23.00;57.60
19567;DHT22;9930;49.240;8.548;2023-05-10T13:48:37;23.00;57.60
19567;DHT22;9930;49.240;8.548;2023-05-10T13:51:03;23.00;57.50
19567;DHT22;9930;49.240;8.548;2023-05-10T13:53:31;23.00;57.40
19567;DHT22;9930;49.240;8.548;2023-05-10T13:55:59;23.10;57.60
19567;DHT22;9930;49.240;8.548;2023-05-10T13:58:25;23.10;57.30
19567;DHT22;9930;49.240;8.548;2023-05-10T14:00:55;23.10;56.90
19567;DHT22;9930;49.240;8.548;2023-05-10T14:03:23;23.10;57.00
19567;DHT22;9930;49.240;8.548;2023-05-10T14:05:52;23.10;56.80
19567;DHT22;9930;49.240;8.548;2023-05-10T14:08:19;23.10;56.70
19567;DHT22;9930;49.240;8.548;2023-05-10T14:10:46;23.10;56.70
19567;DHT22;9930;49.240;8.548;2023-05-10T14:13:14;23.20;56.50
19567;DHT22;9930;49.240;8.548;2023-05-10T14:15:45;23.20;56.30
19567;DHT22;9930;49.240;8.548;2023-05-10T14:18:11;23.10;55.80
19567;DHT22;9930;49.240;8.548;2023-05-10T14:20:40;23.20;56.00
19567;DHT22;9930;49.240;8.548;2023-05-10T14:23:10;23.20;55.80
19567;DHT22;9930;49.240;8.548;2023-05-10T14:25:37;23.20;55.80
19567;DHT22;9930;49.240;8.548;2023-05-10T14:28:03;23.20;55.70
19567;DHT22;9930;49.240;8.548;2023-05-10T14:30:31;23.20;55.60
19567;DHT22;9930;49.240;8.548;2023-05-10T14:32:56;23.20;55.50
19567;DHT22;9930;49.240;8.548;2023-05-10T14:35:26;23.20;55.30
19567;DHT22;9930;49.240;8.548;2023-05-10T14:37:56;23.20;55.20
19567;DHT22;9930;49.240;8.548;2023-05-10T14:40:22;23.30;55.20
19567;DHT22;9930;49.240;8.548;2023-05-10T14:42:50;23.30;55.70
19567;DHT22;9930;49.240;8.548;2023-05-10T14:45:17;23.30;55.00
19567;DHT22;9930;49.240;8.548;2023-05-10T14:47:43;23.30;55.20
19567;DHT22;9930;49.240;8.548;2023-05-10T14:50:09;23.30;55.00
19567;DHT22;9930;49.240;8.548;2023-05-10T14:52:38;23.30;54.90
19567;DHT22;9930;49.240;8.548;2023-05-10T14:55:04;23.30;54.80
19567;DHT22;9930;49.240;8.548;2023-05-10T14:57:30;23.40;54.60
19567;DHT22;9930;49.240;8.548;2023-05-10T14:59:58;23.40;54.50
19567;DHT22;9930;49.240;8.548;2023-05-10T15:02:24;23.40;54.40
19567;DHT22;9930;49.240;8.548;2023-05-10T15:04:50;23.40;54.10
19567;DHT22;9930;49.240;8.548;2023-05-10T15:07:20;23.30;54.00
19567;DHT22;9930;49.240;8.548;2023-05-10T15:09:49;23.30;53.90
19567;DHT22;9930;49.240;8.548;2023-05-10T15:12:17;23.30;53.80
19567;DHT22;9930;49.240;8.548;2023-05-10T15:14:43;23.30;53.80
19567;DHT22;9930;49.240;8.548;2023-05-10T15:17:11;23.30;53.80
19567;DHT22;9930;49.240;8.548;2023-05-10T15:19:37;23.30;53.70
19567;DHT22;9930;49.240;8.548;2023-05-10T15:22:05;23.30;53.60
19567;DHT22;9930;49.240;8.548;2023-05-10T15:24:33;23.30;53.60
19567;DHT22;9930;49.240;8.548;2023-05-10T15:27:01;23.30;53.60
19567;DHT22;9930;49.240;8.548;2023-05-10T15:29:29;23.30;53.50
19567;DHT22;9930;49.240;8.548;2023-05-10T15:32:00;23.30;53.50
19567;DHT22;9930;49.240;8.548;2023-05-10T15:34:28;23.30;53.50
19567;DHT22;9930;49.240;8.548;2023-05-10T15:36:54;23.30;53.90
19567;DHT22;9930;49.240;8.548;2023-05-10T15:39:22;23.30;53.10
19567;DHT22;9930;49.240;8.548;2023-05-10T15:41:50;23.30;53.00
19567;DHT22;9930;49.240;8.548;2023-05-10T15:44:22;23.30;52.90
19567;DHT22;9930;49.240;8.548;2023-05-10T15:46:48;23.20;52.70
19567;DHT22;9930;49.240;8.548;2023-05-10T15:49:14;23.20;52.70
19567;DHT22;9930;49.240;8.548;2023-05-10T15:51:43;23.10;52.80
19567;DHT22;9930;49.240;8.548;2023-05-10T15:54:14;23.10;52.90
19567;DHT22;9930;49.240;8.548;2023-05-10T15:56:42;23.10;52.70
19567;DHT22;9930;49.240;8.548;2023-05-10T15:59:08;23.10;52.80
19567;DHT22;9930;49.240;8.548;2023-05-10T16:01:38;23.10;52.80
19567;DHT22;9930;49.240;8.548;2023-05-10T16:04:05;23.00;52.70
19567;DHT22;9930;49.240;8.548;2023-05-10T16:06:31;23.00;52.60
19567;DHT22;9930;49.240;8.548;2023-05-10T16:09:02;23.00;52.60
19567;DHT22;9930;49.240;8.548;2023-05-10T16:11:28;23.00;52.70
19567;DHT22;9930;49.240;8.548;2023-05-10T16:13:56;22.90;52.60
19567;DHT22;9930;49.240;8.548;2023-05-10T16:16:21;22.90;52.30
19567;DHT22;9930;49.240;8.548;2023-05-10T16:18:50;22.90;52.60
19567;DHT22;9930;49.240;8.548;2023-05-10T16:21:16;22.80;52.50
19567;DHT22;9930;49.240;8.548;2023-05-10T16:23:45;22.80;52.60